Time;durP1;ratioP1;P1;durP2;ratioP2;P2;SDS_P1;SDS_P2;PMS_P1;PMS_P2;Temp;Humidity;BMP_temperature;BMP_pressure;BME280_temperature;BME280_humidity;BME280_pressure;Samples;Min_cycle;Max_cycle;Signal;HPM_P1;HPM_P2
2022/03/20 00:00:38;;;;;;;33.33;15.07;;;;;;;-145.69;100.00;73607.78;5074534;28;20245;-76
2022/03/20 00:03:13;;;;;;;35.87;15.20;;;;;;;-145.69;100.00;73613.75;5074989;28;20206;-75
2022/03/20 00:05:42;;;;;;;36.47;15.57;;;;;;;-145.69;100.00;73633.66;5074866;28;20206;-76
2022/03/20 00:08:12;;;;;;;33.80;14.80;;;;;;;-145.69;100.00;73623.69;5074678;28;20289;-75
2022/03/20 00:10:42;;;;;;;38.13;15.17;;;;;;;-145.69;100.00;73611.75;5075022;28;20298;-76
2022/03/20 00:13:09;;;;;;;34.60;16.03;;;;;;;-145.69;100.00;73595.81;5074363;28;20226;-76
2022/03/20 00:15:43;;;;;;;40.97;16.80;;;;;;;-145.69;100.00;73573.94;5074319;28;20238;-75
2022/03/20 00:18:16;;;;;;;36.73;16.30;;;;;;;-145.69;100.00;73558.00;5074268;28;20234;-75
2022/03/20 00:20:44;;;;;;;42.10;16.93;;;;;;;-145.69;100.00;73544.06;5074493;28;20592;-76
2022/03/20 00:23:16;;;;;;;39.80;16.17;;;;;;;-145.69;100.00;73546.06;5074684;28;20202;-76
2022/03/20 00:25:45;;;;;;;36.03;16.50;;;;;;;-145.69;100.00;73548.03;5074450;28;20244;-75
2022/03/20 00:28:16;;;;;;;34.70;16.33;;;;;;;-145.69;100.00;73538.09;5074466;28;20194;-76
2022/03/20 00:30:46;;;;;;;37.63;16.10;;;;;;;-145.69;100.00;73552.03;5073867;28;20290;-76
2022/03/20 00:33:13;;;;;;;33.57;15.50;;;;;;;-145.69;100.00;73567.94;5074090;28;20226;-76
2022/03/20 00:35:45;;;;;;;37.40;17.07;;;;;;;-145.69;100.00;73583.88;5074423;28;20211;-76
2022/03/20 00:38:14;;;;;;;38.67;16.43;;;;;;;-145.69;100.00;73595.81;5074074;28;20202;-75
2022/03/20 00:40:43;;;;;;;35.70;17.03;;;;;;;-145.69;100.00;73607.78;5074058;28;20202;-75
2022/03/20 00:43:11;;;;;;;47.93;19.73;;;;;;;-145.69;100.00;73605.78;5073905;28;20201;-76
2022/03/20 00:45:39;;;;;;;43.13;18.67;;;;;;;-145.69;100.00;73609.75;5073960;28;20233;-76
2022/03/20 00:48:07;;;;;;;47.83;19.40;;;;;;;-145.69;100.00;73619.72;5074240;28;20199;-76
2022/03/20 00:50:34;;;;;;;49.73;19.60;;;;;;;-145.69;100.00;73615.72;5073902;28;20606;-77
2022/03/20 00:53:00;;;;;;;51.63;20.80;;;;;;;-145.69;100.00;73637.63;5073636;28;20692;-78
2022/03/20 00:55:29;;;;;;;45.43;20.03;;;;;;;-145.69;100.00;73645.59;5073861;28;20195;-78
2022/03/20 00:57:58;;;;;;;45.83;20.27;;;;;;;-145.69;100.00;73661.53;5073603;28;20205;-77
2022/03/20 01:00:32;;;;;;;47.33;19.83;;;;;;;-145.69;100.00;73677.47;5073677;28;20587;-78
2022/03/20 01:03:05;;;;;;;49.60;21.30;;;;;;;-145.69;100.00;73697.38;5073262;28;20225;-77
2022/03/20 01:05:32;;;;;;;51.50;21.00;;;;;;;-145.69;100.00;73703.34;5073848;28;20210;-78
2022/03/20 01:08:02;;;;;;;43.80;19.17;;;;;;;-145.69;100.00;73727.22;5073348;28;20199;-78
2022/03/20 01:10:29;;;;;;;50.50;20.80;;;;;;;-145.69;100.00;73731.22;5073314;28;20199;-78
2022/03/20 01:13:00;;;;;;;49.73;20.73;;;;;;;-145.69;100.00;73745.16;5073032;28;20301;-78
2022/03/20 01:15:28;;;;;;;45.77;19.43;;;;;;;-145.69;100.00;73749.13;5073293;28;20234;-78
2022/03/20 01:18:03;;;;;;;43.87;17.97;;;;;;;-145.69;100.00;73763.06;5073473;28;20203;-78
2022/03/20 01:20:29;;;;;;;64.82;28.25;;;;;;;-145.69;100.00;73771.03;5072634;28;20461;-78
2022/03/20 01:22:59;;;;;;;57.70;23.00;;;;;;;-145.69;100.00;73779.00;5073354;28;20206;-78
2022/03/20 01:25:26;;;;;;;55.47;21.33;;;;;;;-145.69;100.00;73784.97;5072796;28;20190;-77
2022/03/20 01:27:52;;;;;;;50.43;20.70;;;;;;;-145.69;100.00;73804.88;5073306;28;20207;-78
2022/03/20 01:30:21;;;;;;;52.80;20.50;;;;;;;-145.69;100.00;73800.91;5072769;28;20199;-78
2022/03/20 01:32:50;;;;;;;52.40;22.00;;;;;;;-145.69;100.00;73786.97;5073156;28;20261;-77
2022/03/20 01:35:20;;;;;;;59.20;22.30;;;;;;;-145.69;100.00;73784.97;5073108;28;20232;-77
2022/03/20 01:37:51;;;;;;;58.00;22.50;;;;;;;-145.69;100.00;73767.06;5072765;28;20222;-77
2022/03/20 01:40:17;;;;;;;51.97;21.90;;;;;;;-145.69;100.00;73759.09;5073090;28;20650;-77
2022/03/20 01:42:44;;;;;;;53.50;22.40;;;;;;;-145.69;100.00;73749.13;5073114;28;20294;-78
2022/03/20 01:45:16;;;;;;;52.37;21.97;;;;;;;-145.69;100.00;73729.22;5072983;28;20539;-77
2022/03/20 01:47:43;;;;;;;63.00;24.13;;;;;;;-145.69;100.00;73713.28;5072798;28;20218;-76
2022/03/20 01:50:11;;;;;;;52.47;20.40;;;;;;;-145.69;100.00;73701.34;5072925;28;20230;-77
2022/03/20 01:52:37;;;;;;;52.53;21.13;;;;;;;-145.69;100.00;73703.34;5072642;28;20624;-76
2022/03/20 01:55:05;;;;;;;56.95;27.38;;;;;;;-145.69;100.00;73703.34;5071807;28;20441;-77
2022/03/20 01:57:36;;;;;;;51.20;22.67;;;;;;;-145.69;100.00;73707.31;5062571;28;20199;-77
2022/03/20 02:00:08;;;;;;;45.40;20.47;;;;;;;-145.69;100.00;73717.28;5072944;28;20288;-77
2022/03/20 02:02:36;;;;;;;47.83;20.07;;;;;;;-145.69;100.00;73707.31;5072869;28;20301;-78
2022/03/20 02:05:05;;;;;;;48.27;19.53;;;;;;;-145.69;100.00;73715.28;5073181;28;20199;-77
2022/03/20 02:07:34;;;;;;;42.80;18.67;;;;;;;-145.69;100.00;73723.25;5073063;28;20207;-77
2022/03/20 02:10:01;;;;;;;59.20;22.73;;;;;;;-145.69;100.00;73699.34;5072750;28;20201;-78
2022/03/20 02:12:28;;;;;;;48.53;20.30;;;;;;;-145.69;100.00;73705.34;5072786;28;20190;-77
2022/03/20 02:14:55;;;;;;;50.53;20.30;;;;;;;-145.69;100.00;73719.25;5072615;28;20720;-77
2022/03/20 02:17:22;;;;;;;46.97;19.13;;;;;;;-145.69;100.00;73719.25;5072683;28;20653;-77
2022/03/20 02:19:52;;;;;;;50.27;20.30;;;;;;;-145.69;100.00;73725.25;5072891;28;20206;-77
2022/03/20 02:22:19;;;;;;;53.83;20.73;;;;;;;-145.69;100.00;73727.22;5075968;28;20202;-77
2022/03/20 02:24:49;;;;;;;52.67;21.10;;;;;;;-145.69;100.00;73723.25;5076858;28;20657;-77
2022/03/20 02:27:18;;;;;;;53.37;21.77;;;;;;;-145.69;100.00;73719.25;5076434;28;20199;-77
2022/03/20 02:29:46;;;;;;;58.42;26.20;;;;;;;-145.69;100.00;73739.19;5075850;28;20442;-78
2022/03/20 02:32:17;;;;;;;51.40;21.80;;;;;;;-145.69;100.00;73735.19;5076792;28;20194;-77
2022/03/20 02:34:47;;;;;;;49.57;20.57;;;;;;;-145.69;100.00;73741.16;5076534;28;20309;-77
2022/03/20 02:37:14;;;;;;;59.10;21.30;;;;;;;-145.69;100.00;73695.38;5076712;28;20289;-77
2022/03/20 02:39:43;;;;;;;51.20;21.70;;;;;;;-145.69;100.00;73683.44;5076440;28;20210;-78
2022/03/20 02:42:11;;;;;;;49.37;21.07;;;;;;;-145.69;100.00;73677.47;5076515;28;20208;-77
2022/03/20 02:44:54;;;;;;;51.87;19.90;;;;;;;-145.69;100.00;73677.47;5076633;28;20242;-78
2022/03/20 02:47:23;;;;;;;45.53;19.57;;;;;;;-145.69;100.00;73667.50;5076443;28;20268;-77
2022/03/20 02:49:51;;;;;;;49.63;20.20;;;;;;;-145.69;100.00;73663.53;5076699;28;20201;-77
2022/03/20 02:52:18;;;;;;;47.27;20.37;;;;;;;-145.69;100.00;73647.59;5076354;28;20199;-77
2022/03/20 02:54:46;;;;;;;47.50;19.93;;;;;;;-145.69;100.00;73641.63;5076076;28;20231;-77
2022/03/20 02:57:13;;;;;;;49.50;20.33;;;;;;;-145.69;100.00;73631.66;5076049;28;20195;-76
2022/03/20 02:59:41;;;;;;;48.90;20.03;;;;;;;-145.69;100.00;73619.72;5076124;28;20199;-77
2022/03/20 03:02:11;;;;;;;45.10;19.73;;;;;;;-145.69;100.00;73599.81;5076154;28;20206;-77
2022/03/20 03:04:38;;;;;;;47.30;19.40;;;;;;;-145.69;100.00;73583.88;5075904;28;20724;-78
2022/03/20 03:07:05;;;;;;;43.87;20.13;;;;;;;-145.69;100.00;73560.00;5076071;28;20202;-78
2022/03/20 03:12:17;;;;;;;47.70;19.97;;;;;;;-145.69;100.00;73520.16;5075968;28;20202;-78
2022/03/20 03:17:31;;;;;;;43.93;19.70;;;;;;;-145.69;100.00;73492.28;5074662;28;20553;-77
2022/03/20 03:19:58;;;;;;;45.03;20.00;;;;;;;-145.69;98.62;73466.41;5074311;28;20198;-77
2022/03/20 03:22:26;;;;;;;41.40;18.93;;;;;;;-145.69;96.81;73458.44;5074254;28;20646;-77
2022/03/20 03:24:53;;;;;;;41.77;19.00;;;;;;;-145.69;98.38;73448.50;5074594;28;20669;-77
2022/03/20 03:27:21;;;;;;;47.00;19.33;;;;;;;-145.69;97.49;73440.53;5074413;28;20191;-77
2022/03/20 03:29:48;;;;;;;41.80;19.50;;;;;;;-145.69;94.09;73428.59;5074556;28;20203;-77
2022/03/20 03:32:14;;;;;;;43.33;18.70;;;;;;;-145.69;94.23;73408.69;5074040;28;20221;-77
2022/03/20 03:37:26;;;;;;;46.50;19.10;;;;;;;-145.69;92.58;73394.75;5074319;28;20244;-78
2022/03/20 03:39:52;;;;;;;40.90;18.97;;;;;;;-145.69;90.71;73378.81;5074292;28;20230;-77
2022/03/20 03:42:21;;;;;;;46.40;18.97;;;;;;;-145.69;87.63;73348.97;5074226;28;20194;-77
2022/03/20 03:44:50;;;;;;;42.20;18.70;;;;;;;-145.69;87.21;73346.97;5074120;28;20207;-77
2022/03/20 03:47:16;;;;;;;47.67;19.10;;;;;;;-145.69;87.29;73342.97;5073974;28;20272;-77
2022/03/20 03:49:43;;;;;;;46.33;19.43;;;;;;;-145.69;84.47;73309.13;5071050;28;20199;-77
2022/03/20 03:52:11;;;;;;;46.63;19.90;;;;;;;-145.69;84.35;73295.19;5074195;28;20252;-77
2022/03/20 03:54:38;;;;;;;45.73;18.93;;;;;;;-145.69;84.09;73297.19;5074046;28;20237;-77
2022/03/20 03:57:06;;;;;;;44.80;19.20;;;;;;;-145.69;84.65;73303.16;5073936;28;20202;-77
2022/03/20 03:59:34;;;;;;;42.97;18.40;;;;;;;-145.69;85.69;73309.13;5073664;28;20205;-77
2022/03/20 04:02:01;;;;;;;44.63;19.37;;;;;;;-145.69;82.56;73285.25;5074050;28;20206;-77
2022/03/20 04:04:27;;;;;;;46.13;19.70;;;;;;;-145.69;83.01;73285.25;5073860;28;20225;-77
2022/03/20 04:06:55;;;;;;;49.40;19.97;;;;;;;-145.69;82.92;73281.25;5073944;28;20194;-77
2022/03/20 04:09:21;;;;;;;46.67;19.63;;;;;;;-145.69;81.15;73255.38;5073492;28;20256;-77
2022/03/20 04:11:48;;;;;;;45.27;18.87;;;;;;;-145.69;82.90;73273.31;5073650;28;20244;-77
2022/03/20 04:14:15;;;;;;;43.67;19.23;;;;;;;-145.69;84.45;73293.22;5035898;28;1074225;-77
2022/03/20 04:16:43;;;;;;;46.03;20.30;;;;;;;-145.69;87.09;73313.13;5074867;28;20223;-77
2022/03/20 04:19:10;;;;;;;43.13;18.67;;;;;;;-145.69;88.75;73329.03;5074704;28;20207;-77
2022/03/20 04:21:37;;;;;;;49.00;20.83;;;;;;;-145.69;87.87;73333.03;5074508;28;20713;-78
2022/03/20 04:24:05;;;;;;;44.70;19.43;;;;;;;-145.69;88.46;73329.03;5074615;28;20538;-77
2022/03/20 04:26:33;;;;;;;43.63;19.97;;;;;;;-145.69;90.72;73342.97;5074272;28;20203;-77
2022/03/20 04:28:59;;;;;;;44.37;20.50;;;;;;;-145.69;89.04;73337.00;5074258;28;20199;-77
2022/03/20 04:31:26;;;;;;;44.90;19.87;;;;;;;-145.69;86.32;73327.06;5073792;28;20662;-78
2022/03/20 04:33:56;;;;;;;38.43;18.50;;;;;;;-145.69;87.19;73321.09;5074250;28;20229;-77
2022/03/20 04:36:23;;;;;;;40.57;18.60;;;;;;;-145.69;88.62;73325.06;5074232;28;20257;-77
2022/03/20 04:38:50;;;;;;;43.23;19.30;;;;;;;-145.69;86.49;73319.09;5074201;28;20570;-77
2022/03/20 04:41:17;;;;;;;47.20;18.63;;;;;;;-145.69;85.40;73315.13;5073899;28;20203;-78
2022/03/20 04:43:44;;;;;;;44.83;19.83;;;;;;;-145.69;85.42;73303.16;5072912;28;20205;-77
2022/03/20 04:46:11;;;;;;;49.77;20.17;;;;;;;-145.69;84.70;73299.19;5073853;28;20618;-77
2022/03/20 04:59:35;;;;;;;44.93;20.13;;;;;;;-145.69;85.80;73273.31;5073830;28;20557;-77
2022/03/20 05:02:02;;;;;;;50.87;20.57;;;;;;;-145.69;86.43;73275.28;5073590;28;20203;-78
2022/03/20 05:04:28;;;;;;;49.23;21.63;;;;;;;-145.69;85.76;73261.34;5073710;28;20194;-77
2022/03/20 05:06:56;;;;;;;42.63;19.93;;;;;;;-145.69;87.60;73261.34;5073833;28;20202;-78
2022/03/20 05:14:51;;;;;;;48.07;21.13;;;;;;;-145.69;89.99;73291.22;5073291;28;20307;-78
2022/03/20 05:17:17;;;;;;;45.53;20.60;;;;;;;-145.69;88.72;73291.22;5073597;28;20195;-77
2022/03/20 05:19:44;;;;;;;47.77;20.33;;;;;;;-145.69;89.00;73289.22;5073498;28;20206;-77
2022/03/20 05:22:12;;;;;;;44.87;21.40;;;;;;;-145.69;87.85;73285.25;5073718;28;20199;-77
2022/03/20 05:24:40;;;;;;;46.37;20.07;;;;;;;-145.69;87.44;73285.25;5073125;28;20209;-78
2022/03/20 05:27:07;;;;;;;48.53;19.73;;;;;;;-145.69;84.80;73283.25;5073472;28;20233;-77
2022/03/20 05:29:34;;;;;;;46.50;20.03;;;;;;;-145.69;82.66;73267.34;5073365;28;20680;-77
2022/03/20 05:32:02;;;;;;;39.27;19.33;;;;;;;-145.69;83.86;73263.34;5073395;28;20200;-77
2022/03/20 05:34:30;;;;;;;42.73;19.83;;;;;;;-145.69;83.41;73267.34;5073385;28;20233;-78
2022/03/20 05:36:57;;;;;;;47.40;20.43;;;;;;;-145.69;83.85;73257.38;5072948;28;20207;-78
2022/03/20 05:39:25;;;;;;;42.30;20.30;;;;;;;-145.69;80.69;73251.41;5073106;28;20206;-77
2022/03/20 05:41:51;;;;;;;43.87;19.30;;;;;;;-145.69;80.25;73237.47;5073366;28;20201;-77
2022/03/20 05:44:19;;;;;;;44.53;19.70;;;;;;;-145.69;79.45;73219.56;5073425;28;20547;-77
2022/03/20 05:46:48;;;;;;;42.30;19.50;;;;;;;-145.69;78.56;73217.56;5073162;28;20680;-77
2022/03/20 05:49:15;;;;;;;43.63;19.43;;;;;;;-145.69;78.40;73205.63;5069407;28;20615;-78
2022/03/20 05:51:42;;;;;;;45.40;18.93;;;;;;;-145.69;77.96;73209.59;5073147;28;20234;-78
2022/03/20 05:54:09;;;;;;;41.67;18.80;;;;;;;-145.69;77.59;73209.59;5072905;28;20721;-78
2022/03/20 05:59:21;;;;;;;45.70;19.27;;;;;;;-145.69;77.10;73209.59;5073109;28;20206;-78
2022/03/20 06:01:50;;;;;;;44.13;18.43;;;;;;;-145.69;77.48;73215.56;5072742;28;20201;-78
2022/03/20 06:04:16;;;;;;;46.53;19.67;;;;;;;-145.69;77.83;73209.59;5073086;28;20285;-78
2022/03/20 06:06:43;;;;;;;45.63;20.13;;;;;;;-145.69;77.71;73217.56;5072902;28;20199;-78
2022/03/20 06:09:10;;;;;;;43.43;19.43;;;;;;;-145.69;77.29;73213.56;5073178;28;20293;-78
2022/03/20 06:11:38;;;;;;;41.53;19.13;;;;;;;-145.69;78.70;73207.59;5073042;28;20689;-78
2022/03/20 06:14:06;;;;;;;42.70;19.47;;;;;;;-145.69;80.00;73211.59;5072527;28;20234;-78
2022/03/20 06:16:32;;;;;;;42.20;19.13;;;;;;;-145.69;80.56;73213.56;5072941;28;20202;-78
2022/03/20 06:18:59;;;;;;;45.50;20.40;;;;;;;-145.69;82.29;73211.59;5072952;28;20588;-78
2022/03/20 06:21:26;;;;;;;46.30;19.83;;;;;;;-145.69;81.01;73199.66;5073090;28;20198;-78
2022/03/20 06:23:54;;;;;;;47.03;20.43;;;;;;;-145.69;81.78;73209.59;5072922;28;20352;-78
2022/03/20 06:26:20;;;;;;;42.53;18.70;;;;;;;-145.69;81.20;73191.69;5072480;28;20202;-78
2022/03/20 06:28:49;;;;;;;42.57;18.83;;;;;;;-145.69;80.05;73173.75;5072649;28;20195;-78
2022/03/20 06:31:16;;;;;;;41.13;17.80;;;;;;;-145.69;77.25;73149.88;5072690;28;20252;-78
2022/03/20 06:33:44;;;;;;;41.73;18.97;;;;;;;-145.69;80.35;73145.91;5072354;28;20653;-78
2022/03/20 06:36:11;;;;;;;43.03;19.33;;;;;;;-145.69;82.08;73135.94;5072664;28;20602;-78
2022/03/20 06:38:38;;;;;;;38.07;18.13;;;;;;;-145.69;76.25;73100.09;5072485;28;20203;-78
2022/03/20 06:41:06;;;;;;;41.90;18.83;;;;;;;-145.69;80.29;73092.16;5072423;28;20199;-78
2022/03/20 06:43:35;;;;;;;36.57;17.90;;;;;;;-145.69;75.41;73082.19;5072356;28;20844;-79
2022/03/20 06:46:03;;;;;;;40.40;18.57;;;;;;;-145.69;74.05;73070.25;5072535;28;20249;-78
2022/03/20 06:48:29;;;;;;;39.43;18.60;;;;;;;-145.69;73.43;73058.31;5072659;28;20252;-78
2022/03/20 06:50:56;;;;;;;36.30;17.53;;;;;;;-145.69;74.19;73022.47;5072469;28;20194;-79
2022/03/20 06:53:22;;;;;;;40.53;17.37;;;;;;;-145.69;71.77;73016.50;5072549;28;20203;-78
2022/03/20 06:55:49;;;;;;;38.20;18.03;;;;;;;-145.69;70.23;73012.53;5072626;28;20234;-79
2022/03/20 06:58:17;;;;;;;35.57;17.27;;;;;;;-145.69;66.85;72966.72;5072484;28;20230;-78
2022/03/20 07:00:43;;;;;;;38.03;17.47;;;;;;;-145.69;67.23;72918.97;5072489;28;20203;-78
2022/03/20 07:03:11;;;;;;;31.67;14.93;;;;;;;-145.69;62.62;72871.19;5072148;28;20199;-79
2022/03/20 07:05:38;;;;;;;28.13;13.10;;;;;;;-145.69;57.10;72815.44;5072353;28;20206;-78
2022/03/20 07:08:06;;;;;;;29.87;12.70;;;;;;;-145.69;53.11;72757.72;5075137;28;20608;-78
2022/03/20 07:10:34;;;;;;;25.23;12.77;;;;;;;-145.69;50.75;72743.78;5075955;28;20203;-77
2022/03/20 07:15:47;;;;;;;27.40;12.73;;;;;;;-145.69;49.61;72723.88;5055601;28;20238;-79
2022/03/20 07:18:17;;;;;;;30.70;12.40;;;;;;;-145.69;49.19;72715.91;5055789;28;20605;-78
2022/03/20 07:20:44;;;;;;;22.73;11.03;;;;;;;-145.69;47.65;72709.94;5055856;28;20592;-78
2022/03/20 07:23:11;;;;;;;24.93;12.33;;;;;;;-145.69;49.56;72703.97;5055618;28;20218;-78
2022/03/20 07:31:09;;;;;;;28.73;11.90;;;;;;;-145.69;47.48;72694.03;5075567;28;20562;-78
2022/03/20 07:33:38;;;;;;;28.23;11.33;;;;;;;-145.69;45.56;72694.03;5075523;28;20198;-79
2022/03/20 07:36:05;;;;;;;23.20;12.20;;;;;;;-145.69;47.40;72674.13;5075034;28;20233;-78
2022/03/20 07:38:32;;;;;;;23.13;11.53;;;;;;;-145.69;46.00;72684.06;5075342;28;20657;-79
2022/03/20 07:40:59;;;;;;;27.63;11.73;;;;;;;-145.69;45.08;72674.13;5075471;28;20227;-78
2022/03/20 07:43:26;;;;;;;30.40;12.07;;;;;;;-145.69;46.17;72676.09;5065854;28;20200;-78
2022/03/20 07:45:53;;;;;;;25.97;11.73;;;;;;;-145.69;45.66;72656.22;5071137;28;20245;-78
2022/03/20 07:48:21;;;;;;;25.07;11.00;;;;;;;-145.69;46.36;72648.25;5074977;28;20206;-78
2022/03/20 07:50:50;;;;;;;20.37;10.90;;;;;;;-145.69;43.88;72626.34;5075116;28;20206;-78
2022/03/20 07:53:16;;;;;;;28.03;11.10;;;;;;;-145.69;41.75;72624.34;5075277;28;20253;-79
2022/03/20 07:55:43;;;;;;;23.93;11.37;;;;;;;-145.69;44.42;72608.44;5075112;28;20226;-78
2022/03/20 07:58:09;;;;;;;31.73;11.67;;;;;;;-145.69;44.65;72588.53;5074921;28;20206;-78
2022/03/20 08:00:38;;;;;;;29.37;11.37;;;;;;;-145.69;46.43;72574.59;5075081;28;20198;-79
2022/03/20 08:03:05;;;;;;;24.17;11.27;;;;;;;-145.69;43.27;72554.69;5074763;28;20206;-78
2022/03/20 08:05:31;;;;;;;20.43;10.50;;;;;;;-145.69;43.47;72550.72;5075107;28;20249;-79
2022/03/20 08:08:02;;;;;;;20.43;10.23;;;;;;;-145.69;41.43;72532.78;5075014;28;20202;-79
2022/03/20 08:10:29;;;;;;;21.40;10.50;;;;;;;-145.69;41.10;72540.75;5074533;28;20202;-79
2022/03/20 08:12:56;;;;;;;21.20;10.67;;;;;;;-145.69;39.12;72532.78;5074794;28;20285;-79
2022/03/20 08:15:31;;;;;;;22.60;11.90;;;;;;;-145.69;38.19;72556.69;5074453;28;20601;-79
2022/03/20 08:18:00;;;;;;;26.73;12.03;;;;;;;-145.69;39.27;72540.75;5073615;28;20217;-78
2022/03/20 08:20:27;;;;;;;24.47;11.97;;;;;;;-145.69;39.37;72544.75;5074051;28;20649;-79
2022/03/20 08:22:53;;;;;;;25.07;10.87;;;;;;;-145.69;40.49;72556.69;5074490;28;20668;-79
2022/03/20 08:25:28;;;;;;;25.03;11.80;;;;;;;-145.69;39.55;72548.72;5074454;28;20195;-79
2022/03/20 08:27:55;;;;;;;25.83;10.60;;;;;;;-145.69;38.75;72548.72;5074463;28;20236;-79
2022/03/20 08:30:22;;;;;;;30.37;13.03;;;;;;;-145.69;39.02;72532.78;5073997;28;20194;-79
2022/03/20 08:32:48;;;;;;;31.40;12.47;;;;;;;-145.69;39.18;72528.81;5074520;28;20198;-79
2022/03/20 08:35:16;;;;;;;24.43;11.53;;;;;;;-145.69;38.66;72494.97;5074214;28;20222;-80
2022/03/20 08:37:47;;;;;;;21.67;10.73;;;;;;;-145.69;40.30;72449.19;5074132;28;20592;-80
2022/03/20 08:40:16;;;;;;;24.50;11.67;;;;;;;-145.69;38.73;72415.38;5074051;28;20210;-81
2022/03/20 08:42:48;;;;;;;20.23;10.20;;;;;;;-145.69;37.19;72377.53;5073981;28;20672;-79
2022/03/20 08:45:15;;;;;;;23.30;10.53;;;;;;;-145.69;35.88;72393.47;5074342;28;20209;-79
2022/03/20 08:47:43;;;;;;;20.50;11.00;;;;;;;-145.69;38.83;72391.47;5074223;28;20289;-79
2022/03/20 08:50:13;;;;;;;19.77;9.97;;;;;;;-145.69;38.80;72389.50;5074093;28;20199;-79
2022/03/20 08:52:41;;;;;;;21.37;11.13;;;;;;;-145.69;37.55;72381.53;5073540;28;20248;-78
2022/03/20 08:55:11;;;;;;;20.17;9.53;;;;;;;-145.69;35.47;72361.63;5073753;28;20229;-79
2022/03/20 08:57:39;;;;;;;19.67;10.10;;;;;;;-145.69;36.27;72339.72;5074109;28;20195;-78
2022/03/20 09:00:10;;;;;;;22.30;10.10;;;;;;;-145.69;36.04;72341.72;5074218;28;20206;-79
2022/03/20 09:02:37;;;;;;;23.07;9.87;;;;;;;-145.69;36.39;72343.72;5073576;28;20677;-79
2022/03/20 09:05:04;;;;;;;19.37;10.03;;;;;;;-145.69;36.00;72351.66;5073853;28;20234;-79
2022/03/20 09:07:31;;;;;;;22.80;10.13;;;;;;;-145.69;36.80;72357.66;5073713;28;20194;-78
2022/03/20 09:09:58;;;;;;;19.20;9.93;;;;;;;-145.69;35.42;72367.59;5073258;28;20328;-79
2022/03/20 09:12:25;;;;;;;19.10;9.07;;;;;;;-145.69;35.00;72381.53;5073940;28;20207;-79
2022/03/20 09:14:54;;;;;;;18.60;9.20;;;;;;;-145.69;34.36;72403.41;5073205;28;20238;-79
2022/03/20 09:20:08;;;;;;;23.67;9.43;;;;;;;-145.69;36.96;72405.41;5073473;28;20324;-79
2022/03/20 09:22:35;;;;;;;20.17;9.07;;;;;;;-145.69;36.50;72397.44;5073629;28;20238;-79
2022/03/20 09:25:01;;;;;;;19.53;8.77;;;;;;;-145.69;36.34;72391.47;5073235;28;20772;-79
2022/03/20 09:27:28;;;;;;;16.30;8.90;;;;;;;-145.69;33.96;72389.50;5072979;28;20665;-79
2022/03/20 09:29:54;;;;;;;21.37;8.47;;;;;;;-145.69;34.70;72393.47;5073052;28;20225;-79
2022/03/20 09:32:22;;;;;;;18.23;8.90;;;;;;;-145.69;34.50;72405.41;5073211;28;20199;-79
2022/03/20 09:34:48;;;;;;;19.17;8.97;;;;;;;-145.69;35.69;72375.56;5073055;28;20747;-79
2022/03/20 09:37:19;;;;;;;20.47;8.67;;;;;;;-145.69;34.40;72365.59;5073404;28;20211;-79
2022/03/20 09:39:45;;;;;;;19.37;8.23;;;;;;;-145.69;33.93;72369.59;5073128;28;20581;-79
2022/03/20 09:42:16;;;;;;;18.73;8.33;;;;;;;-145.69;34.02;72389.50;5073233;28;20205;-79
2022/03/20 09:44:55;;;;;;;17.80;8.90;;;;;;;-145.69;34.34;72381.53;5073133;28;20209;-79
2022/03/20 09:47:24;;;;;;;17.47;8.23;;;;;;;-145.69;34.63;72373.56;5073039;28;20202;-79
2022/03/20 09:49:51;;;;;;;16.50;8.40;;;;;;;-145.69;34.27;72345.69;5073123;28;20234;-79
2022/03/20 09:52:18;;;;;;;20.00;9.40;;;;;;;-145.69;34.77;72238.22;5059736;28;20200;-79
2022/03/20 09:54:44;;;;;;;18.53;8.53;;;;;;;-145.69;34.14;72166.56;5052885;28;20206;-79
2022/03/20 09:57:11;;;;;;;20.25;9.38;;;;;;;-145.69;32.53;72224.28;5052854;28;20261;-79
2022/03/20 09:59:39;;;;;;;17.20;8.85;;;;;;;-145.69;33.02;72246.19;5070696;28;20198;-79
2022/03/20 10:02:06;;;;;;;20.77;8.90;;;;;;;-145.69;33.64;72266.09;5072162;28;20213;-79
2022/03/20 10:04:52;;;;;;;19.52;8.68;;;;;;;-145.69;33.41;72230.25;5073051;28;20215;-79
2022/03/20 10:07:22;;;;;;;16.13;8.88;;;;;;;-145.69;33.57;72301.91;5072863;28;20711;-79
2022/03/20 10:10:08;;;;;;;24.53;8.30;;;;;;;-145.69;34.59;72274.06;5072607;28;20289;-79
2022/03/20 10:12:36;;;;;;;17.83;8.77;;;;;;;-145.69;33.37;72270.06;5052686;28;20222;-77
2022/03/20 10:15:05;;;;;;;16.50;9.00;;;;;;;-145.69;34.16;72230.25;5052547;28;20235;-78
2022/03/20 10:17:32;;;;;;;19.73;9.07;;;;;;;-145.69;34.28;72202.41;5052767;28;20203;-78
2022/03/20 10:20:13;;;;;;;21.27;8.82;;;;;;;-145.69;33.81;72198.41;5052641;28;20207;-77
2022/03/20 10:22:42;;;;;;;17.30;8.40;;;;;;;-145.69;33.58;72168.56;5058778;28;20606;-77
2022/03/20 10:25:11;;;;;;;17.85;9.15;;;;;;;-145.69;36.30;72204.38;5072734;28;20214;-78
2022/03/20 10:27:39;;;;;;;13.77;8.55;;;;;;;-145.69;35.88;72184.50;5072802;28;20348;-78
2022/03/20 10:30:10;;;;;;;21.30;8.95;;;;;;;-145.69;34.05;72214.34;5072740;28;20206;-78
2022/03/20 10:32:47;;;;;;;15.90;8.60;;;;;;;-145.69;34.34;72222.31;5072034;28;20205;-78
2022/03/20 10:35:17;;;;;;;20.80;8.95;;;;;;;-145.69;33.80;72224.28;5072203;28;20572;-78
2022/03/20 10:37:49;;;;;;;18.25;8.32;;;;;;;-145.69;35.70;72202.41;5072866;28;20293;-77
2022/03/20 10:40:21;;;;;;;20.38;9.05;;;;;;;-145.69;34.83;72226.28;5072633;28;20210;-77
2022/03/20 10:43:07;;;;;;;19.37;8.80;;;;;;;-145.69;36.26;72252.16;5075035;28;20197;-77
2022/03/20 10:45:50;;;;;;;16.48;8.20;;;;;;;-145.69;34.85;72218.31;5076396;28;20199;-77
2022/03/20 10:48:28;;;;;;;18.60;9.00;;;;;;;-145.69;35.12;72198.41;5076348;28;20233;-76
2022/03/20 10:50:56;;;;;;;17.92;9.25;;;;;;;-145.69;37.81;72164.59;5076445;28;20286;-77
2022/03/20 10:53:23;;;;;;;20.77;8.93;;;;;;;-145.69;36.64;72088.97;5076300;28;20203;-77
2022/03/20 10:55:56;;;;;;;18.17;8.65;;;;;;;-145.69;32.43;72122.78;5076022;28;20711;-77
2022/03/20 10:58:23;;;;;;;18.17;8.80;;;;;;;-145.69;32.88;72102.88;5075652;28;20202;-77
2022/03/20 11:00:50;;;;;;;17.83;8.55;;;;;;;-145.69;33.25;72043.19;5076131;28;20190;-76
2022/03/20 11:03:21;;;;;;;19.00;8.23;;;;;;;-145.69;33.54;72035.22;5076238;28;20198;-77
2022/03/20 11:05:48;;;;;;;22.42;8.43;;;;;;;-145.69;33.95;72019.31;5076121;28;20206;-77
2022/03/20 11:08:16;;;;;;;17.20;7.82;;;;;;;-145.69;33.33;72071.03;5075965;28;20203;-76
2022/03/20 11:10:44;;;;;;;17.85;8.43;;;;;;;-145.69;32.99;72075.03;5075552;28;20241;-76
2022/03/20 11:13:14;;;;;;;15.95;7.85;;;;;;;-145.69;31.94;72057.13;5075641;28;20668;-76
2022/03/20 11:15:43;;;;;;;15.38;8.63;;;;;;;-145.69;33.08;72079.00;5075226;28;20861;-76
2022/03/20 11:18:10;;;;;;;15.15;8.20;;;;;;;-145.69;31.80;72104.88;5075809;28;20221;-77
2022/03/20 11:20:38;;;;;;;15.45;8.38;;;;;;;-145.69;33.95;72088.97;5075709;28;20207;-76
2022/03/20 11:23:06;;;;;;;14.80;8.23;;;;;;;-145.69;32.82;72067.06;5075296;28;20256;-76
2022/03/20 11:25:37;;;;;;;19.38;8.20;;;;;;;-145.69;33.14;72033.22;5075856;28;20207;-75
2022/03/20 11:28:09;;;;;;;15.32;7.78;;;;;;;-145.69;33.53;72027.25;5075512;28;20210;-76
2022/03/20 11:30:36;;;;;;;17.73;8.20;;;;;;;-145.69;33.64;72029.25;5075661;28;20207;-76
2022/03/20 11:33:03;;;;;;;17.42;8.50;;;;;;;-145.69;32.89;72023.28;5075633;28;20199;-77
2022/03/20 11:35:32;;;;;;;15.88;7.80;;;;;;;-145.69;31.66;72039.19;5075178;28;20226;-76
2022/03/20 11:38:14;;;;;;;15.85;7.72;;;;;;;-145.69;31.99;72094.94;5075385;28;20203;-76
2022/03/20 11:41:07;;;;;;;17.13;7.78;;;;;;;-145.69;32.66;72077.00;5075477;28;20202;-77
2022/03/20 11:43:35;;;;;;;16.48;8.07;;;;;;;-145.69;32.60;72063.09;5075405;28;20202;-77
2022/03/20 11:46:17;;;;;;;18.33;7.75;;;;;;;-145.69;33.56;72090.94;5075308;28;20199;-78